sensor_id;sensor_type;location;lat;lon;timestamp;pressure;altitude;pressure_sealevel;temperature;humidity
70954;BME280;58618;47.490;8.736;2023-04-29T00:02:35;96383.94;;;12.18;100.00
70954;BME280;58618;47.490;8.736;2023-04-29T00:05:23;96374.19;;;12.15;100.00
70954;BME280;58618;47.490;8.736;2023-04-29T00:08:10;96374.63;;;12.17;100.00
70954;BME280;58618;47.490;8.736;2023-04-29T00:10:59;96362.84;;;12.11;100.00
70954;BME280;58618;47.490;8.736;2023-04-29T00:13:46;96371.19;;;12.08;100.00
70954;BME280;58618;47.490;8.736;2023-04-29T00:16:34;96374.34;;;12.05;100.00
70954;BME280;58618;47.490;8.736;2023-04-29T00:19:22;96374.91;;;12.02;100.00
70954;BME280;58618;47.490;8.736;2023-04-29T00:22:10;96371.69;;;12.10;100.00
70954;BME280;58618;47.490;8.736;2023-04-29T00:24:57;96371.88;;;12.14;100.00
70954;BME280;58618;47.490;8.736;2023-04-29T00:27:46;96362.75;;;12.16;100.00
70954;BME280;58618;47.490;8.736;2023-04-29T00:30:33;96361.94;;;12.21;100.00
70954;BME280;58618;47.490;8.736;2023-04-29T00:33:21;96367.00;;;12.26;100.00
70954;BME280;58618;47.490;8.736;2023-04-29T00:36:08;96358.38;;;12.31;100.00
70954;BME280;58618;47.490;8.736;2023-04-29T00:38:56;96366.78;;;12.22;100.00
70954;BME280;58618;47.490;8.736;2023-04-29T00:41:43;96358.94;;;12.27;100.00
70954;BME280;58618;47.490;8.736;2023-04-29T00:44:32;96365.38;;;12.30;100.00
70954;BME280;58618;47.490;8.736;2023-04-29T00:47:20;96367.00;;;12.40;100.00
70954;BME280;58618;47.490;8.736;2023-04-29T00:50:08;96363.84;;;12.43;100.00
70954;BME280;58618;47.490;8.736;2023-04-29T00:52:55;96365.97;;;12.54;100.00
70954;BME280;58618;47.490;8.736;2023-04-29T00:55:43;96375.34;;;12.64;100.00
70954;BME280;58618;47.490;8.736;2023-04-29T00:58:30;96368.81;;;12.80;100.00
70954;BME280;58618;47.490;8.736;2023-04-29T01:01:22;96363.66;;;12.94;100.00
70954;BME280;58618;47.490;8.736;2023-04-29T01:04:09;96374.00;;;12.94;100.00
70954;BME280;58618;47.490;8.736;2023-04-29T01:07:01;96371.75;;;13.01;100.00
70954;BME280;58618;47.490;8.736;2023-04-29T01:09:57;96367.56;;;13.05;100.00
70954;BME280;58618;47.490;8.736;2023-04-29T01:12:53;96359.91;;;13.00;100.00
70954;BME280;58618;47.490;8.736;2023-04-29T01:15:53;96350.59;;;12.85;100.00
70954;BME280;58618;47.490;8.736;2023-04-29T01:18:48;96361.53;;;12.82;100.00
70954;BME280;58618;47.490;8.736;2023-04-29T01:21:44;96357.69;;;12.80;100.00
70954;BME280;58618;47.490;8.736;2023-04-29T01:24:35;96352.34;;;12.76;100.00
70954;BME280;58618;47.490;8.736;2023-04-29T01:27:29;96356.25;;;12.87;100.00
70954;BME280;58618;47.490;8.736;2023-04-29T01:30:27;96360.19;;;12.98;100.00
70954;BME280;58618;47.490;8.736;2023-04-29T01:33:24;96355.00;;;12.98;100.00
70954;BME280;58618;47.490;8.736;2023-04-29T01:36:22;96362.19;;;13.01;100.00
70954;BME280;58618;47.490;8.736;2023-04-29T01:39:19;96360.56;;;12.92;100.00
70954;BME280;58618;47.490;8.736;2023-04-29T01:42:14;96354.25;;;12.84;100.00
70954;BME280;58618;47.490;8.736;2023-04-29T01:45:07;96372.19;;;12.81;100.00
70954;BME280;58618;47.490;8.736;2023-04-29T01:47:57;96372.47;;;12.79;100.00
70954;BME280;58618;47.490;8.736;2023-04-29T01:50:45;96377.66;;;12.79;100.00
70954;BME280;58618;47.490;8.736;2023-04-29T01:53:32;96365.88;;;12.73;100.00
70954;BME280;58618;47.490;8.736;2023-04-29T01:56:20;96376.69;;;12.75;100.00
70954;BME280;58618;47.490;8.736;2023-04-29T01:59:08;96366.16;;;12.72;100.00
70954;BME280;58618;47.490;8.736;2023-04-29T02:01:56;96374.28;;;12.65;100.00
70954;BME280;58618;47.490;8.736;2023-04-29T02:04:43;96371.50;;;12.75;100.00
70954;BME280;58618;47.490;8.736;2023-04-29T02:07:31;96367.88;;;12.76;100.00
70954;BME280;58618;47.490;8.736;2023-04-29T02:10:18;96362.69;;;12.76;100.00
70954;BME280;58618;47.490;8.736;2023-04-29T02:13:05;96361.94;;;12.76;100.00
70954;BME280;58618;47.490;8.736;2023-04-29T02:15:54;96363.09;;;12.83;100.00
70954;BME280;58618;47.490;8.736;2023-04-29T02:18:42;96373.44;;;12.83;100.00
70954;BME280;58618;47.490;8.736;2023-04-29T02:21:29;96365.00;;;12.78;100.00
70954;BME280;58618;47.490;8.736;2023-04-29T02:24:16;96363.28;;;12.73;100.00
70954;BME280;58618;47.490;8.736;2023-04-29T02:27:04;96361.75;;;12.72;100.00
70954;BME280;58618;47.490;8.736;2023-04-29T02:29:51;96361.66;;;12.63;100.00
70954;BME280;58618;47.490;8.736;2023-04-29T02:32:40;96353.97;;;12.58;100.00
70954;BME280;58618;47.490;8.736;2023-04-29T02:35:27;96350.25;;;12.51;100.00
70954;BME280;58618;47.490;8.736;2023-04-29T02:38:15;96353.41;;;12.48;100.00
70954;BME280;58618;47.490;8.736;2023-04-29T02:41:02;96346.31;;;12.40;100.00
70954;BME280;58618;47.490;8.736;2023-04-29T02:43:49;96339.91;;;12.37;100.00
70954;BME280;58618;47.490;8.736;2023-04-29T02:46:37;96346.03;;;12.41;100.00
70954;BME280;58618;47.490;8.736;2023-04-29T02:49:27;96352.16;;;12.32;100.00
70954;BME280;58618;47.490;8.736;2023-04-29T02:52:15;96362.59;;;12.26;100.00
70954;BME280;58618;47.490;8.736;2023-04-29T02:55:04;96361.53;;;12.27;100.00
70954;BME280;58618;47.490;8.736;2023-04-29T02:57:51;96359.81;;;12.23;100.00
70954;BME280;58618;47.490;8.736;2023-04-29T03:00:39;96357.50;;;12.21;100.00
70954;BME280;58618;47.490;8.736;2023-04-29T03:03:27;96361.16;;;12.20;100.00
70954;BME280;58618;47.490;8.736;2023-04-29T03:06:15;96363.75;;;12.20;100.00
70954;BME280;58618;47.490;8.736;2023-04-29T03:09:03;96363.84;;;12.15;100.00
70954;BME280;58618;47.490;8.736;2023-04-29T03:11:50;96365.25;;;12.21;100.00
70954;BME280;58618;47.490;8.736;2023-04-29T03:14:38;96362.13;;;12.24;100.00
70954;BME280;58618;47.490;8.736;2023-04-29T03:17:26;96363.66;;;12.25;100.00
70954;BME280;58618;47.490;8.736;2023-04-29T03:20:13;96361.44;;;12.33;100.00
70954;BME280;58618;47.490;8.736;2023-04-29T03:23:02;96371.78;;;12.33;100.00
70954;BME280;58618;47.490;8.736;2023-04-29T03:25:49;96354.09;;;12.26;100.00
70954;BME280;58618;47.490;8.736;2023-04-29T03:28:38;96348.31;;;12.15;100.00
70954;BME280;58618;47.490;8.736;2023-04-29T03:31:25;96355.59;;;12.13;100.00
70954;BME280;58618;47.490;8.736;2023-04-29T03:34:13;96354.41;;;12.06;100.00
70954;BME280;58618;47.490;8.736;2023-04-29T03:37:00;96357.66;;;11.98;100.00
70954;BME280;58618;47.490;8.736;2023-04-29T03:39:49;96346.63;;;11.92;100.00
70954;BME280;58618;47.490;8.736;2023-04-29T03:42:36;96349.22;;;11.92;100.00
70954;BME280;58618;47.490;8.736;2023-04-29T03:45:23;96341.06;;;11.85;100.00
70954;BME280;58618;47.490;8.736;2023-04-29T03:48:10;96338.47;;;11.85;100.00
70954;BME280;58618;47.490;8.736;2023-04-29T03:50:58;96345.06;;;11.77;100.00
70954;BME280;58618;47.490;8.736;2023-04-29T03:53:45;96340.19;;;11.76;100.00
70954;BME280;58618;47.490;8.736;2023-04-29T03:56:34;96330.63;;;11.76;100.00
70954;BME280;58618;47.490;8.736;2023-04-29T03:59:22;96343.41;;;11.68;100.00
70954;BME280;58618;47.490;8.736;2023-04-29T04:02:09;96339.06;;;11.63;100.00
70954;BME280;58618;47.490;8.736;2023-04-29T04:04:56;96332.44;;;11.57;100.00
70954;BME280;58618;47.490;8.736;2023-04-29T04:07:44;96335.81;;;11.58;100.00
70954;BME280;58618;47.490;8.736;2023-04-29T04:10:31;96341.44;;;11.60;100.00
70954;BME280;58618;47.490;8.736;2023-04-29T04:13:20;96341.41;;;11.46;100.00
70954;BME280;58618;47.490;8.736;2023-04-29T04:16:07;96344.59;;;11.38;100.00
70954;BME280;58618;47.490;8.736;2023-04-29T04:18:55;96341.91;;;11.29;100.00
70954;BME280;58618;47.490;8.736;2023-04-29T04:21:43;96335.19;;;11.28;100.00
70954;BME280;58618;47.490;8.736;2023-04-29T04:24:30;96347.84;;;11.30;100.00
70954;BME280;58618;47.490;8.736;2023-04-29T04:27:18;96358.69;;;11.27;100.00
70954;BME280;58618;47.490;8.736;2023-04-29T04:30:08;96355.91;;;11.23;100.00
70954;BME280;58618;47.490;8.736;2023-04-29T04:32:55;96377.53;;;11.27;100.00
70954;BME280;58618;47.490;8.736;2023-04-29T04:35:43;96367.84;;;11.19;100.00
70954;BME280;58618;47.490;8.736;2023-04-29T04:38:30;96378.47;;;11.18;100.00
70954;BME280;58618;47.490;8.736;2023-04-29T04:41:18;96376.06;;;11.21;100.00
70954;BME280;58618;47.490;8.736;2023-04-29T04:44:05;96384.94;;;11.34;100.00
70954;BME280;58618;47.490;8.736;2023-04-29T04:46:54;96390.31;;;11.37;100.00
70954;BME280;58618;47.490;8.736;2023-04-29T04:49:41;96384.63;;;11.40;100.00
70954;BME280;58618;47.490;8.736;2023-04-29T04:52:29;96394.78;;;11.51;100.00
70954;BME280;58618;47.490;8.736;2023-04-29T04:55:16;96390.88;;;11.72;100.00
70954;BME280;58618;47.490;8.736;2023-04-29T04:58:03;96396.13;;;11.67;100.00
70954;BME280;58618;47.490;8.736;2023-04-29T05:00:51;96387.00;;;11.69;100.00
70954;BME280;58618;47.490;8.736;2023-04-29T05:03:39;96389.13;;;11.67;100.00
70954;BME280;58618;47.490;8.736;2023-04-29T05:06:27;96401.69;;;11.74;100.00
70954;BME280;58618;47.490;8.736;2023-04-29T05:09:14;96392.81;;;11.80;100.00
70954;BME280;58618;47.490;8.736;2023-04-29T05:12:01;96400.19;;;12.05;100.00
70954;BME280;58618;47.490;8.736;2023-04-29T05:14:51;96398.72;;;12.32;100.00
70954;BME280;58618;47.490;8.736;2023-04-29T05:17:39;96400.84;;;12.57;100.00
70954;BME280;58618;47.490;8.736;2023-04-29T05:20:27;96409.09;;;12.86;100.00
70954;BME280;58618;47.490;8.736;2023-04-29T05:23:15;96412.72;;;13.13;100.00
70954;BME280;58618;47.490;8.736;2023-04-29T05:26:02;96405.63;;;13.32;100.00
70954;BME280;58618;47.490;8.736;2023-04-29T05:28:49;96414.50;;;13.75;100.00
70954;BME280;58618;47.490;8.736;2023-04-29T05:31:37;96412.94;;;14.80;100.00
70954;BME280;58618;47.490;8.736;2023-04-29T05:34:24;96413.72;;;15.63;100.00
70954;BME280;58618;47.490;8.736;2023-04-29T05:37:13;96419.84;;;15.85;100.00
70954;BME280;58618;47.490;8.736;2023-04-29T05:40:00;96418.31;;;15.67;100.00
70954;BME280;58618;47.490;8.736;2023-04-29T05:42:48;96428.22;;;15.82;100.00
70954;BME280;58618;47.490;8.736;2023-04-29T05:45:35;96423.97;;;15.77;100.00
70954;BME280;58618;47.490;8.736;2023-04-29T05:48:23;96426.47;;;17.13;100.00
70954;BME280;58618;47.490;8.736;2023-04-29T05:51:11;96426.72;;;16.62;100.00
70954;BME280;58618;47.490;8.736;2023-04-29T05:54:00;96430.56;;;17.73;100.00
70954;BME280;58618;47.490;8.736;2023-04-29T05:56:48;96433.47;;;16.63;100.00
70954;BME280;58618;47.490;8.736;2023-04-29T05:59:35;96439.09;;;17.32;100.00
70954;BME280;58618;47.490;8.736;2023-04-29T06:02:23;96436.00;;;16.80;100.00
70954;BME280;58618;47.490;8.736;2023-04-29T06:05:10;96444.25;;;16.35;100.00
70954;BME280;58618;47.490;8.736;2023-04-29T06:07:58;96438.34;;;16.73;100.00
70954;BME280;58618;47.490;8.736;2023-04-29T06:10:46;96439.31;;;17.18;100.00
70954;BME280;58618;47.490;8.736;2023-04-29T06:13:36;96440.09;;;18.35;100.00
70954;BME280;58618;47.490;8.736;2023-04-29T06:16:24;96448.97;;;20.04;100.00
70954;BME280;58618;47.490;8.736;2023-04-29T06:19:11;96434.38;;;20.78;89.69
70954;BME280;58618;47.490;8.736;2023-04-29T06:21:58;96442.59;;;21.42;84.78
70954;BME280;58618;47.490;8.736;2023-04-29T06:24:46;96449.03;;;23.09;74.33
70954;BME280;58618;47.490;8.736;2023-04-29T06:27:36;96446.59;;;24.17;68.46
70954;BME280;58618;47.490;8.736;2023-04-29T06:30:23;96448.56;;;24.60;64.14
70954;BME280;58618;47.490;8.736;2023-04-29T06:33:10;96455.19;;;22.71;71.39
70954;BME280;58618;47.490;8.736;2023-04-29T06:35:58;96451.03;;;20.26;88.42
70954;BME280;58618;47.490;8.736;2023-04-29T06:38:46;96453.66;;;20.85;84.00
70954;BME280;58618;47.490;8.736;2023-04-29T06:41:33;96446.81;;;20.81;85.85
70954;BME280;58618;47.490;8.736;2023-04-29T06:44:23;96437.28;;;20.29;89.20
70954;BME280;58618;47.490;8.736;2023-04-29T06:47:11;96446.72;;;21.43;82.70
70954;BME280;58618;47.490;8.736;2023-04-29T06:49:58;96453.00;;;21.39;84.15
70954;BME280;58618;47.490;8.736;2023-04-29T06:52:46;96451.59;;;20.04;90.72
70954;BME280;58618;47.490;8.736;2023-04-29T06:55:34;96456.44;;;19.37;91.43
70954;BME280;58618;47.490;8.736;2023-04-29T06:58:21;96450.31;;;19.58;90.92
70954;BME280;58618;47.490;8.736;2023-04-29T07:01:10;96453.44;;;19.75;89.41
70954;BME280;58618;47.490;8.736;2023-04-29T07:03:58;96453.94;;;19.29;92.58
70954;BME280;58618;47.490;8.736;2023-04-29T07:06:45;96459.97;;;18.15;100.00
70954;BME280;58618;47.490;8.736;2023-04-29T07:09:32;96446.91;;;17.82;100.00
70954;BME280;58618;47.490;8.736;2023-04-29T07:12:20;96458.00;;;18.45;99.52
70954;BME280;58618;47.490;8.736;2023-04-29T07:15:08;96438.63;;;18.01;100.00
70954;BME280;58618;47.490;8.736;2023-04-29T07:17:56;96456.81;;;17.89;100.00
70954;BME280;58618;47.490;8.736;2023-04-29T07:20:44;96462.28;;;18.17;99.34
70954;BME280;58618;47.490;8.736;2023-04-29T07:23:32;96459.47;;;18.22;100.00
70954;BME280;58618;47.490;8.736;2023-04-29T07:26:20;96453.56;;;18.25;100.00
70954;BME280;58618;47.490;8.736;2023-04-29T07:29:07;96463.53;;;18.10;100.00
70954;BME280;58618;47.490;8.736;2023-04-29T07:31:54;96462.75;;;18.31;100.00
70954;BME280;58618;47.490;8.736;2023-04-29T07:34:43;96466.91;;;18.44;100.00
70954;BME280;58618;47.490;8.736;2023-04-29T07:37:30;96470.25;;;18.77;100.00
70954;BME280;58618;47.490;8.736;2023-04-29T07:40:18;96466.78;;;19.10;96.19
70954;BME280;58618;47.490;8.736;2023-04-29T07:43:05;96475.78;;;18.19;100.00
70954;BME280;58618;47.490;8.736;2023-04-29T07:45:54;96470.16;;;18.29;100.00
70954;BME280;58618;47.490;8.736;2023-04-29T07:48:41;96475.59;;;18.36;100.00
70954;BME280;58618;47.490;8.736;2023-04-29T07:51:30;96477.19;;;19.83;96.08
70954;BME280;58618;47.490;8.736;2023-04-29T07:54:18;96486.81;;;19.42;92.77
70954;BME280;58618;47.490;8.736;2023-04-29T07:57:05;96477.91;;;20.35;88.39
70954;BME280;58618;47.490;8.736;2023-04-29T07:59:53;96468.94;;;20.67;84.29
70954;BME280;58618;47.490;8.736;2023-04-29T08:02:40;96481.84;;;21.20;85.08
70954;BME280;58618;47.490;8.736;2023-04-29T08:05:27;96478.50;;;21.07;85.48
70954;BME280;58618;47.490;8.736;2023-04-29T08:08:16;96477.22;;;20.54;84.69
70954;BME280;58618;47.490;8.736;2023-04-29T08:11:04;96476.16;;;19.47;91.83
70954;BME280;58618;47.490;8.736;2023-04-29T08:13:52;96475.28;;;18.94;94.34
70954;BME280;58618;47.490;8.736;2023-04-29T08:16:42;96476.59;;;18.43;97.01
70954;BME280;58618;47.490;8.736;2023-04-29T08:19:29;96484.03;;;19.35;93.41
70954;BME280;58618;47.490;8.736;2023-04-29T08:22:17;96474.69;;;20.57;89.46
70954;BME280;58618;47.490;8.736;2023-04-29T08:25:07;96480.47;;;21.61;80.55
70954;BME280;58618;47.490;8.736;2023-04-29T08:27:54;96478.47;;;22.08;79.50
70954;BME280;58618;47.490;8.736;2023-04-29T08:30:42;96478.69;;;21.30;78.76
70954;BME280;58618;47.490;8.736;2023-04-29T08:33:30;96469.69;;;20.37;79.90
70954;BME280;58618;47.490;8.736;2023-04-29T08:36:17;96467.50;;;21.68;73.63
70954;BME280;58618;47.490;8.736;2023-04-29T08:39:05;96472.31;;;21.46;78.92
70954;BME280;58618;47.490;8.736;2023-04-29T08:41:54;96475.97;;;20.95;78.12
70954;BME280;58618;47.490;8.736;2023-04-29T08:44:42;96469.91;;;20.32;79.98
70954;BME280;58618;47.490;8.736;2023-04-29T08:47:31;96473.28;;;20.91;76.77
70954;BME280;58618;47.490;8.736;2023-04-29T08:50:18;96470.53;;;20.13;80.25
70954;BME280;58618;47.490;8.736;2023-04-29T08:53:06;96477.00;;;19.75;82.03
70954;BME280;58618;47.490;8.736;2023-04-29T08:55:54;96472.69;;;19.19;83.62
70954;BME280;58618;47.490;8.736;2023-04-29T08:58:45;96470.63;;;18.43;87.72
70954;BME280;58618;47.490;8.736;2023-04-29T09:01:35;96476.59;;;19.37;86.10
70954;BME280;58618;47.490;8.736;2023-04-29T09:04:35;96468.81;;;20.33;82.71
70954;BME280;58618;47.490;8.736;2023-04-29T09:07:24;96469.06;;;20.71;81.59
70954;BME280;58618;47.490;8.736;2023-04-29T09:10:12;96460.19;;;21.42;68.26
70954;BME280;58618;47.490;8.736;2023-04-29T09:12:59;96462.78;;;22.35;66.17
70954;BME280;58618;47.490;8.736;2023-04-29T09:15:48;96451.19;;;21.08;71.71
70954;BME280;58618;47.490;8.736;2023-04-29T09:18:43;96446.72;;;21.98;66.33
70954;BME280;58618;47.490;8.736;2023-04-29T09:21:30;96459.63;;;21.87;71.42
70954;BME280;58618;47.490;8.736;2023-04-29T09:24:24;96461.22;;;22.30;66.79
70954;BME280;58618;47.490;8.736;2023-04-29T09:27:25;96464.16;;;21.52;70.80
70954;BME280;58618;47.490;8.736;2023-04-29T09:30:12;96462.47;;;21.43;64.29
70954;BME280;58618;47.490;8.736;2023-04-29T09:33:06;96465.28;;;21.70;69.46
70954;BME280;58618;47.490;8.736;2023-04-29T09:35:53;96462.38;;;21.56;73.20
70954;BME280;58618;47.490;8.736;2023-04-29T09:38:52;96461.72;;;22.16;63.60
70954;BME280;58618;47.490;8.736;2023-04-29T09:41:42;96457.47;;;21.54;70.17
70954;BME280;58618;47.490;8.736;2023-04-29T09:44:43;96451.81;;;21.71;57.89
70954;BME280;58618;47.490;8.736;2023-04-29T09:47:30;96453.78;;;21.59;58.93
70954;BME280;58618;47.490;8.736;2023-04-29T09:50:19;96446.63;;;21.75;61.34
70954;BME280;58618;47.490;8.736;2023-04-29T09:53:09;96452.72;;;21.09;68.51
70954;BME280;58618;47.490;8.736;2023-04-29T09:55:58;96441.56;;;20.96;64.49
70954;BME280;58618;47.490;8.736;2023-04-29T09:58:46;96436.13;;;20.89;60.98
70954;BME280;58618;47.490;8.736;2023-04-29T10:01:33;96440.41;;;19.51;65.08
70954;BME280;58618;47.490;8.736;2023-04-29T10:04:22;96444.13;;;19.78;69.55
70954;BME280;58618;47.490;8.736;2023-04-29T10:07:14;96444.19;;;20.49;70.76
70954;BME280;58618;47.490;8.736;2023-04-29T10:10:03;96440.22;;;20.55;69.24
70954;BME280;58618;47.490;8.736;2023-04-29T10:12:53;96429.03;;;20.90;59.37
70954;BME280;58618;47.490;8.736;2023-04-29T10:15:51;96427.19;;;20.75;63.45
70954;BME280;58618;47.490;8.736;2023-04-29T10:18:48;96430.72;;;20.35;65.95
70954;BME280;58618;47.490;8.736;2023-04-29T10:21:38;96423.28;;;20.37;64.95
70954;BME280;58618;47.490;8.736;2023-04-29T10:24:27;96427.75;;;20.52;69.36
70954;BME280;58618;47.490;8.736;2023-04-29T10:27:15;96416.69;;;20.43;70.33
70954;BME280;58618;47.490;8.736;2023-04-29T10:30:06;96417.72;;;20.54;70.24
70954;BME280;58618;47.490;8.736;2023-04-29T10:32:59;96419.66;;;20.57;67.06
70954;BME280;58618;47.490;8.736;2023-04-29T10:35:48;96413.06;;;20.79;60.28
70954;BME280;58618;47.490;8.736;2023-04-29T10:38:41;96403.31;;;20.80;62.47
70954;BME280;58618;47.490;8.736;2023-04-29T10:41:36;96394.63;;;20.76;63.33
70954;BME280;58618;47.490;8.736;2023-04-29T10:44:24;96399.38;;;21.05;68.92
70954;BME280;58618;47.490;8.736;2023-04-29T10:47:18;96397.53;;;21.21;58.06
70954;BME280;58618;47.490;8.736;2023-04-29T10:50:06;96387.91;;;21.10;57.75
70954;BME280;58618;47.490;8.736;2023-04-29T10:52:54;96386.53;;;21.00;58.13
70954;BME280;58618;47.490;8.736;2023-04-29T10:58:53;96385.94;;;21.41;55.94
70954;BME280;58618;47.490;8.736;2023-04-29T11:01:42;96376.41;;;21.14;62.72
70954;BME280;58618;47.490;8.736;2023-04-29T11:04:33;96378.50;;;21.24;62.81
70954;BME280;58618;47.490;8.736;2023-04-29T11:07:25;96389.38;;;21.26;61.41
70954;BME280;58618;47.490;8.736;2023-04-29T11:10:13;96386.72;;;21.07;64.53
70954;BME280;58618;47.490;8.736;2023-04-29T11:13:22;96378.56;;;21.12;64.04
70954;BME280;58618;47.490;8.736;2023-04-29T11:16:11;96372.22;;;21.48;60.80
70954;BME280;58618;47.490;8.736;2023-04-29T11:19:07;96359.84;;;21.48;59.85
70954;BME280;58618;47.490;8.736;2023-04-29T11:22:12;96365.53;;;21.51;60.36
70954;BME280;58618;47.490;8.736;2023-04-29T11:25:02;96365.66;;;21.38;56.90
70954;BME280;58618;47.490;8.736;2023-04-29T11:27:50;96367.97;;;20.74;55.57
70954;BME280;58618;47.490;8.736;2023-04-29T11:30:40;96368.41;;;21.26;59.58
70954;BME280;58618;47.490;8.736;2023-04-29T11:33:31;96368.56;;;21.33;54.35
70954;BME280;58618;47.490;8.736;2023-04-29T11:36:19;96359.56;;;21.34;56.27
70954;BME280;58618;47.490;8.736;2023-04-29T11:39:06;96356.66;;;21.04;61.21
70954;BME280;58618;47.490;8.736;2023-04-29T11:42:02;96352.78;;;21.14;59.25
70954;BME280;58618;47.490;8.736;2023-04-29T11:44:53;96363.16;;;21.26;55.08
70954;BME280;58618;47.490;8.736;2023-04-29T11:47:42;96361.09;;;21.00;57.17
70954;BME280;58618;47.490;8.736;2023-04-29T11:50:32;96364.69;;;21.12;57.76
70954;BME280;58618;47.490;8.736;2023-04-29T11:53:23;96356.81;;;21.46;53.62
70954;BME280;58618;47.490;8.736;2023-04-29T11:56:11;96362.03;;;21.27;56.58
70954;BME280;58618;47.490;8.736;2023-04-29T11:58:58;96363.16;;;21.65;55.41
70954;BME280;58618;47.490;8.736;2023-04-29T12:01:47;96360.66;;;21.14;57.62
70954;BME280;58618;47.490;8.736;2023-04-29T12:04:44;96356.06;;;21.11;56.51
70954;BME280;58618;47.490;8.736;2023-04-29T12:07:32;96356.41;;;20.75;61.77
70954;BME280;58618;47.490;8.736;2023-04-29T12:10:20;96357.28;;;20.98;59.58
70954;BME280;58618;47.490;8.736;2023-04-29T12:13:08;96346.75;;;21.14;60.44
70954;BME280;58618;47.490;8.736;2023-04-29T12:15:57;96355.00;;;21.31;65.13
70954;BME280;58618;47.490;8.736;2023-04-29T12:18:44;96352.81;;;21.33;63.38
70954;BME280;58618;47.490;8.736;2023-04-29T12:21:32;96355.06;;;21.00;62.19
70954;BME280;58618;47.490;8.736;2023-04-29T12:24:22;96347.28;;;21.19;57.77
70954;BME280;58618;47.490;8.736;2023-04-29T12:27:09;96321.41;;;21.02;59.73
70954;BME280;58618;47.490;8.736;2023-04-29T12:29:57;96333.81;;;20.86;55.28
70954;BME280;58618;47.490;8.736;2023-04-29T12:32:44;96341.84;;;21.12;60.33
70954;BME280;58618;47.490;8.736;2023-04-29T12:35:33;96334.19;;;21.03;54.30
70954;BME280;58618;47.490;8.736;2023-04-29T12:38:22;96352.53;;;21.03;57.04
70954;BME280;58618;47.490;8.736;2023-04-29T12:41:13;96352.19;;;21.05;62.02
70954;BME280;58618;47.490;8.736;2023-04-29T12:44:02;96335.03;;;20.73;57.81
70954;BME280;58618;47.490;8.736;2023-04-29T12:46:50;96347.94;;;21.16;62.63
70954;BME280;58618;47.490;8.736;2023-04-29T12:49:41;96335.78;;;21.08;55.32
70954;BME280;58618;47.490;8.736;2023-04-29T12:52:28;96343.06;;;21.34;56.14
70954;BME280;58618;47.490;8.736;2023-04-29T12:55:16;96340.06;;;21.74;61.82
70954;BME280;58618;47.490;8.736;2023-04-29T12:58:04;96344.78;;;21.65;59.02
70954;BME280;58618;47.490;8.736;2023-04-29T13:00:52;96330.28;;;21.32;61.30
70954;BME280;58618;47.490;8.736;2023-04-29T13:03:39;96338.78;;;21.10;59.99
70954;BME280;58618;47.490;8.736;2023-04-29T13:06:27;96343.22;;;21.06;59.93
70954;BME280;58618;47.490;8.736;2023-04-29T13:09:14;96346.56;;;20.87;60.15
70954;BME280;58618;47.490;8.736;2023-04-29T13:12:01;96327.97;;;21.12;59.17
70954;BME280;58618;47.490;8.736;2023-04-29T13:14:50;96332.88;;;21.13;57.13
70954;BME280;58618;47.490;8.736;2023-04-29T13:17:37;96329.03;;;21.26;56.64
70954;BME280;58618;47.490;8.736;2023-04-29T13:20:25;96324.38;;;21.35;55.21
70954;BME280;58618;47.490;8.736;2023-04-29T13:23:12;96329.75;;;21.62;58.32
70954;BME280;58618;47.490;8.736;2023-04-29T13:25:59;96330.41;;;21.78;57.09
70954;BME280;58618;47.490;8.736;2023-04-29T13:28:47;96319.34;;;21.69;51.67
70954;BME280;58618;47.490;8.736;2023-04-29T13:31:35;96324.56;;;22.07;46.67
70954;BME280;58618;47.490;8.736;2023-04-29T13:34:23;96326.25;;;21.96;51.50
70954;BME280;58618;47.490;8.736;2023-04-29T13:37:10;96331.97;;;22.24;46.95
70954;BME280;58618;47.490;8.736;2023-04-29T13:39:58;96327.69;;;22.16;42.05
70954;BME280;58618;47.490;8.736;2023-04-29T13:42:45;96320.09;;;22.34;40.79
70954;BME280;58618;47.490;8.736;2023-04-29T13:45:32;96322.41;;;22.13;45.73
70954;BME280;58618;47.490;8.736;2023-04-29T13:48:21;96310.72;;;22.10;47.23
70954;BME280;58618;47.490;8.736;2023-04-29T13:51:09;96321.97;;;22.33;43.17
70954;BME280;58618;47.490;8.736;2023-04-29T13:53:57;96311.06;;;22.09;43.71
70954;BME280;58618;47.490;8.736;2023-04-29T13:56:44;96315.88;;;22.03;47.86
70954;BME280;58618;47.490;8.736;2023-04-29T13:59:32;96321.94;;;22.07;49.36
70954;BME280;58618;47.490;8.736;2023-04-29T14:02:19;96324.25;;;22.12;46.15
70954;BME280;58618;47.490;8.736;2023-04-29T14:05:08;96316.91;;;22.21;45.12
70954;BME280;58618;47.490;8.736;2023-04-29T14:07:56;96324.03;;;21.98;48.02
70954;BME280;58618;47.490;8.736;2023-04-29T14:10:43;96329.50;;;22.12;47.13
70954;BME280;58618;47.490;8.736;2023-04-29T14:13:30;96321.63;;;22.12;46.44
70954;BME280;58618;47.490;8.736;2023-04-29T14:16:17;96326.94;;;22.39;42.81
70954;BME280;58618;47.490;8.736;2023-04-29T14:19:05;96327.06;;;22.00;46.58
70954;BME280;58618;47.490;8.736;2023-04-29T14:21:53;96325.53;;;22.22;44.41
70954;BME280;58618;47.490;8.736;2023-04-29T14:24:41;96322.03;;;22.63;42.98
70954;BME280;58618;47.490;8.736;2023-04-29T14:27:28;96326.38;;;22.75;38.43
70954;BME280;58618;47.490;8.736;2023-04-29T14:30:15;96309.03;;;22.48;38.11
70954;BME280;58618;47.490;8.736;2023-04-29T14:33:03;96319.25;;;22.53;38.33
70954;BME280;58618;47.490;8.736;2023-04-29T14:35:50;96326.63;;;22.44;37.15
70954;BME280;58618;47.490;8.736;2023-04-29T14:38:39;96336.06;;;21.99;40.76
70954;BME280;58618;47.490;8.736;2023-04-29T14:41:26;96337.22;;;22.24;37.82
70954;BME280;58618;47.490;8.736;2023-04-29T14:44:14;96331.16;;;22.20;37.70
70954;BME280;58618;47.490;8.736;2023-04-29T14:47:01;96328.94;;;22.22;36.14
70954;BME280;58618;47.490;8.736;2023-04-29T14:49:48;96331.41;;;21.92;41.46
70954;BME280;58618;47.490;8.736;2023-04-29T14:52:36;96334.94;;;22.23;37.48